Terminal Aerodrome Forecast
Issued by NWS

Home | Current Version | Previous Version | Text Only | Print | Product List | Glossary On
Versions: 1 2 3 4 5 6 7 8 9 10 11 12 13 14
389
FTUS43 KIWX 251731
TAFSBN
TAF
KSBN 251731Z 2518/2618 14009KT P6SM SCT050 BKN200
     FM260100 16009KT P6SM VCTS BKN040CB
     FM260400 24010KT 5SM -SHRA BR BKN040
     FM260700 27010KT 5SM -SHRA BR OVC020
     FM261300 27016G25KT P6SM SCT035=

USA.gov is the U.S. government's official web portal to all federal, state and local government web resources and services.